sensor_id;sensor_type;location;lat;lon;timestamp;P1;durP1;ratioP1;P2;durP2;ratioP2
30892;SDS011;17595;50.884;4.346;2023-05-07T00:02:24;8.77;;;2.92;;
30892;SDS011;17595;50.884;4.346;2023-05-07T00:04:50;8.45;;;3.80;;
30892;SDS011;17595;50.884;4.346;2023-05-07T00:07:17;5.90;;;3.05;;
30892;SDS011;17595;50.884;4.346;2023-05-07T00:09:42;11.43;;;3.45;;
30892;SDS011;17595;50.884;4.346;2023-05-07T00:12:08;7.22;;;2.95;;
30892;SDS011;17595;50.884;4.346;2023-05-07T00:14:34;7.45;;;3.33;;
30892;SDS011;17595;50.884;4.346;2023-05-07T00:17:00;6.72;;;3.33;;
30892;SDS011;17595;50.884;4.346;2023-05-07T00:19:25;9.20;;;3.30;;
30892;SDS011;17595;50.884;4.346;2023-05-07T00:21:51;8.63;;;3.08;;
30892;SDS011;17595;50.884;4.346;2023-05-07T00:24:18;6.22;;;3.22;;
30892;SDS011;17595;50.884;4.346;2023-05-07T00:26:44;8.02;;;3.65;;
30892;SDS011;17595;50.884;4.346;2023-05-07T00:29:10;5.38;;;3.17;;
30892;SDS011;17595;50.884;4.346;2023-05-07T00:31:36;8.60;;;2.75;;
30892;SDS011;17595;50.884;4.346;2023-05-07T00:34:01;9.40;;;3.05;;
30892;SDS011;17595;50.884;4.346;2023-05-07T00:36:27;7.45;;;2.92;;
30892;SDS011;17595;50.884;4.346;2023-05-07T00:38:54;5.00;;;2.67;;
30892;SDS011;17595;50.884;4.346;2023-05-07T00:41:21;6.43;;;2.90;;
30892;SDS011;17595;50.884;4.346;2023-05-07T00:43:47;8.23;;;2.83;;
30892;SDS011;17595;50.884;4.346;2023-05-07T00:46:13;5.72;;;2.60;;
30892;SDS011;17595;50.884;4.346;2023-05-07T00:48:40;7.70;;;2.72;;
30892;SDS011;17595;50.884;4.346;2023-05-07T00:51:06;7.53;;;3.38;;
30892;SDS011;17595;50.884;4.346;2023-05-07T00:53:32;9.40;;;3.08;;
30892;SDS011;17595;50.884;4.346;2023-05-07T00:55:57;8.43;;;3.15;;
30892;SDS011;17595;50.884;4.346;2023-05-07T00:58:25;10.02;;;3.22;;
30892;SDS011;17595;50.884;4.346;2023-05-07T01:00:51;7.97;;;3.53;;
30892;SDS011;17595;50.884;4.346;2023-05-07T01:03:17;13.90;;;3.78;;
30892;SDS011;17595;50.884;4.346;2023-05-07T01:05:43;6.63;;;2.78;;
30892;SDS011;17595;50.884;4.346;2023-05-07T01:08:11;5.40;;;2.88;;
30892;SDS011;17595;50.884;4.346;2023-05-07T01:10:37;6.80;;;2.83;;
30892;SDS011;17595;50.884;4.346;2023-05-07T01:13:03;5.55;;;2.67;;
30892;SDS011;17595;50.884;4.346;2023-05-07T01:15:29;9.63;;;2.88;;
30892;SDS011;17595;50.884;4.346;2023-05-07T01:17:55;9.02;;;3.55;;
30892;SDS011;17595;50.884;4.346;2023-05-07T01:20:22;8.40;;;3.30;;
30892;SDS011;17595;50.884;4.346;2023-05-07T01:22:48;8.00;;;3.20;;
30892;SDS011;17595;50.884;4.346;2023-05-07T01:25:14;6.97;;;2.72;;
30892;SDS011;17595;50.884;4.346;2023-05-07T01:27:41;8.18;;;3.22;;
30892;SDS011;17595;50.884;4.346;2023-05-07T01:30:07;5.43;;;3.15;;
30892;SDS011;17595;50.884;4.346;2023-05-07T01:32:50;8.20;;;3.65;;
30892;SDS011;17595;50.884;4.346;2023-05-07T01:35:19;8.75;;;4.53;;
30892;SDS011;17595;50.884;4.346;2023-05-07T01:37:47;12.57;;;3.80;;
30892;SDS011;17595;50.884;4.346;2023-05-07T01:40:14;11.85;;;4.40;;
30892;SDS011;17595;50.884;4.346;2023-05-07T01:42:41;10.15;;;3.28;;
30892;SDS011;17595;50.884;4.346;2023-05-07T01:45:08;6.07;;;3.67;;
30892;SDS011;17595;50.884;4.346;2023-05-07T01:47:34;8.25;;;2.90;;
30892;SDS011;17595;50.884;4.346;2023-05-07T01:50:02;8.18;;;2.80;;
30892;SDS011;17595;50.884;4.346;2023-05-07T01:52:30;4.45;;;2.90;;
30892;SDS011;17595;50.884;4.346;2023-05-07T01:54:56;6.90;;;2.90;;
30892;SDS011;17595;50.884;4.346;2023-05-07T01:57:22;9.05;;;3.28;;
30892;SDS011;17595;50.884;4.346;2023-05-07T01:59:47;10.23;;;3.28;;
30892;SDS011;17595;50.884;4.346;2023-05-07T02:02:13;7.72;;;2.95;;
30892;SDS011;17595;50.884;4.346;2023-05-07T02:04:39;7.82;;;3.10;;
30892;SDS011;17595;50.884;4.346;2023-05-07T02:07:04;5.55;;;2.90;;
30892;SDS011;17595;50.884;4.346;2023-05-07T02:09:30;8.13;;;3.20;;
30892;SDS011;17595;50.884;4.346;2023-05-07T02:11:56;6.70;;;3.20;;
30892;SDS011;17595;50.884;4.346;2023-05-07T02:14:21;7.97;;;3.00;;
30892;SDS011;17595;50.884;4.346;2023-05-07T02:16:47;7.13;;;2.63;;
30892;SDS011;17595;50.884;4.346;2023-05-07T02:19:13;10.55;;;2.78;;
30892;SDS011;17595;50.884;4.346;2023-05-07T02:21:39;10.07;;;2.90;;
30892;SDS011;17595;50.884;4.346;2023-05-07T02:24:05;7.78;;;3.10;;
30892;SDS011;17595;50.884;4.346;2023-05-07T02:26:31;7.65;;;3.63;;
30892;SDS011;17595;50.884;4.346;2023-05-07T02:28:56;9.50;;;3.88;;
30892;SDS011;17595;50.884;4.346;2023-05-07T02:31:22;7.82;;;3.35;;
30892;SDS011;17595;50.884;4.346;2023-05-07T02:33:48;5.20;;;2.60;;
30892;SDS011;17595;50.884;4.346;2023-05-07T02:36:13;11.23;;;3.25;;
30892;SDS011;17595;50.884;4.346;2023-05-07T02:38:39;10.60;;;3.70;;
30892;SDS011;17595;50.884;4.346;2023-05-07T02:41:04;8.50;;;3.50;;
30892;SDS011;17595;50.884;4.346;2023-05-07T02:43:30;8.65;;;3.00;;
30892;SDS011;17595;50.884;4.346;2023-05-07T02:46:02;6.82;;;3.38;;
30892;SDS011;17595;50.884;4.346;2023-05-07T02:48:29;6.30;;;2.92;;
30892;SDS011;17595;50.884;4.346;2023-05-07T02:50:55;10.30;;;3.63;;
30892;SDS011;17595;50.884;4.346;2023-05-07T02:53:20;7.13;;;3.42;;
30892;SDS011;17595;50.884;4.346;2023-05-07T02:55:46;8.80;;;3.30;;
30892;SDS011;17595;50.884;4.346;2023-05-07T02:58:12;7.90;;;3.53;;
30892;SDS011;17595;50.884;4.346;2023-05-07T03:00:37;8.60;;;3.17;;
30892;SDS011;17595;50.884;4.346;2023-05-07T03:03:03;9.15;;;3.20;;
30892;SDS011;17595;50.884;4.346;2023-05-07T03:05:29;13.02;;;3.33;;
30892;SDS011;17595;50.884;4.346;2023-05-07T03:07:54;8.43;;;3.03;;
30892;SDS011;17595;50.884;4.346;2023-05-07T03:10:20;8.40;;;3.03;;
30892;SDS011;17595;50.884;4.346;2023-05-07T03:12:45;10.32;;;3.47;;
30892;SDS011;17595;50.884;4.346;2023-05-07T03:15:11;7.25;;;3.15;;
30892;SDS011;17595;50.884;4.346;2023-05-07T03:17:37;6.82;;;3.45;;
30892;SDS011;17595;50.884;4.346;2023-05-07T03:20:03;10.60;;;2.97;;
30892;SDS011;17595;50.884;4.346;2023-05-07T03:22:29;9.90;;;3.30;;
30892;SDS011;17595;50.884;4.346;2023-05-07T03:24:55;7.35;;;3.70;;
30892;SDS011;17595;50.884;4.346;2023-05-07T03:27:21;6.43;;;2.90;;
30892;SDS011;17595;50.884;4.346;2023-05-07T03:29:46;7.97;;;3.65;;
30892;SDS011;17595;50.884;4.346;2023-05-07T03:32:12;11.43;;;3.30;;
30892;SDS011;17595;50.884;4.346;2023-05-07T03:34:38;8.43;;;3.03;;
30892;SDS011;17595;50.884;4.346;2023-05-07T03:37:04;8.00;;;3.05;;
30892;SDS011;17595;50.884;4.346;2023-05-07T03:39:29;8.27;;;2.50;;
30892;SDS011;17595;50.884;4.346;2023-05-07T03:41:55;5.90;;;3.03;;
30892;SDS011;17595;50.884;4.346;2023-05-07T03:44:21;7.15;;;2.78;;
30892;SDS011;17595;50.884;4.346;2023-05-07T03:46:47;7.50;;;3.17;;
30892;SDS011;17595;50.884;4.346;2023-05-07T03:49:13;7.53;;;2.95;;
30892;SDS011;17595;50.884;4.346;2023-05-07T03:51:38;7.13;;;3.13;;
30892;SDS011;17595;50.884;4.346;2023-05-07T03:54:04;9.38;;;3.20;;
30892;SDS011;17595;50.884;4.346;2023-05-07T03:56:30;7.20;;;3.38;;
30892;SDS011;17595;50.884;4.346;2023-05-07T03:58:56;12.10;;;2.95;;
30892;SDS011;17595;50.884;4.346;2023-05-07T04:01:22;11.40;;;3.40;;
30892;SDS011;17595;50.884;4.346;2023-05-07T04:03:47;7.00;;;3.33;;
30892;SDS011;17595;50.884;4.346;2023-05-07T04:06:13;9.18;;;3.13;;
30892;SDS011;17595;50.884;4.346;2023-05-07T04:08:40;8.43;;;2.80;;
30892;SDS011;17595;50.884;4.346;2023-05-07T04:11:06;6.72;;;3.35;;
30892;SDS011;17595;50.884;4.346;2023-05-07T04:13:31;7.38;;;3.08;;
30892;SDS011;17595;50.884;4.346;2023-05-07T04:15:57;9.00;;;3.08;;
30892;SDS011;17595;50.884;4.346;2023-05-07T04:18:22;10.68;;;3.03;;
30892;SDS011;17595;50.884;4.346;2023-05-07T04:20:48;6.95;;;2.83;;
30892;SDS011;17595;50.884;4.346;2023-05-07T04:23:15;9.23;;;3.05;;
30892;SDS011;17595;50.884;4.346;2023-05-07T04:25:40;8.38;;;3.38;;
30892;SDS011;17595;50.884;4.346;2023-05-07T04:28:06;12.20;;;3.50;;
30892;SDS011;17595;50.884;4.346;2023-05-07T04:30:32;5.57;;;3.35;;
30892;SDS011;17595;50.884;4.346;2023-05-07T04:32:57;6.75;;;3.22;;
30892;SDS011;17595;50.884;4.346;2023-05-07T04:35:23;5.57;;;2.67;;
30892;SDS011;17595;50.884;4.346;2023-05-07T04:37:49;9.57;;;3.53;;
30892;SDS011;17595;50.884;4.346;2023-05-07T04:40:14;6.60;;;3.17;;
30892;SDS011;17595;50.884;4.346;2023-05-07T04:42:41;9.02;;;3.58;;
30892;SDS011;17595;50.884;4.346;2023-05-07T04:45:06;4.97;;;2.88;;
30892;SDS011;17595;50.884;4.346;2023-05-07T04:47:33;6.90;;;3.22;;
30892;SDS011;17595;50.884;4.346;2023-05-07T04:49:59;11.35;;;3.50;;
30892;SDS011;17595;50.884;4.346;2023-05-07T04:52:25;7.47;;;3.80;;
30892;SDS011;17595;50.884;4.346;2023-05-07T04:54:50;10.95;;;3.80;;
30892;SDS011;17595;50.884;4.346;2023-05-07T04:57:16;9.15;;;3.42;;
30892;SDS011;17595;50.884;4.346;2023-05-07T04:59:42;8.55;;;3.28;;
30892;SDS011;17595;50.884;4.346;2023-05-07T05:02:10;7.38;;;3.33;;
30892;SDS011;17595;50.884;4.346;2023-05-07T05:04:36;7.10;;;3.47;;
30892;SDS011;17595;50.884;4.346;2023-05-07T05:07:02;10.40;;;3.97;;
30892;SDS011;17595;50.884;4.346;2023-05-07T05:09:30;10.52;;;3.92;;
30892;SDS011;17595;50.884;4.346;2023-05-07T05:11:56;8.45;;;3.75;;
30892;SDS011;17595;50.884;4.346;2023-05-07T05:14:22;11.60;;;4.22;;
30892;SDS011;17595;50.884;4.346;2023-05-07T05:16:47;9.23;;;3.85;;
30892;SDS011;17595;50.884;4.346;2023-05-07T05:19:13;7.55;;;3.67;;
30892;SDS011;17595;50.884;4.346;2023-05-07T05:21:39;7.00;;;3.40;;
30892;SDS011;17595;50.884;4.346;2023-05-07T05:24:04;6.88;;;3.47;;
30892;SDS011;17595;50.884;4.346;2023-05-07T05:26:30;8.68;;;3.90;;
30892;SDS011;17595;50.884;4.346;2023-05-07T05:28:56;9.60;;;3.65;;
30892;SDS011;17595;50.884;4.346;2023-05-07T05:31:21;11.75;;;3.47;;
30892;SDS011;17595;50.884;4.346;2023-05-07T05:33:47;9.73;;;3.50;;
30892;SDS011;17595;50.884;4.346;2023-05-07T05:36:13;7.88;;;3.58;;
30892;SDS011;17595;50.884;4.346;2023-05-07T05:38:39;5.03;;;3.40;;
30892;SDS011;17595;50.884;4.346;2023-05-07T05:41:05;7.90;;;3.53;;
30892;SDS011;17595;50.884;4.346;2023-05-07T05:43:30;9.38;;;3.28;;
30892;SDS011;17595;50.884;4.346;2023-05-07T05:45:56;9.18;;;3.45;;
30892;SDS011;17595;50.884;4.346;2023-05-07T05:48:22;11.85;;;3.85;;
30892;SDS011;17595;50.884;4.346;2023-05-07T05:50:48;11.82;;;3.65;;
30892;SDS011;17595;50.884;4.346;2023-05-07T05:53:14;11.13;;;3.90;;
30892;SDS011;17595;50.884;4.346;2023-05-07T05:55:40;7.75;;;3.30;;
30892;SDS011;17595;50.884;4.346;2023-05-07T05:58:07;10.30;;;4.15;;
30892;SDS011;17595;50.884;4.346;2023-05-07T06:00:33;8.07;;;3.70;;
30892;SDS011;17595;50.884;4.346;2023-05-07T06:02:59;9.80;;;4.35;;
30892;SDS011;17595;50.884;4.346;2023-05-07T06:05:25;9.23;;;4.53;;
30892;SDS011;17595;50.884;4.346;2023-05-07T06:07:50;8.85;;;3.90;;
30892;SDS011;17595;50.884;4.346;2023-05-07T06:10:16;11.13;;;4.53;;
30892;SDS011;17595;50.884;4.346;2023-05-07T06:12:41;11.27;;;4.20;;
30892;SDS011;17595;50.884;4.346;2023-05-07T06:15:07;11.93;;;4.13;;
30892;SDS011;17595;50.884;4.346;2023-05-07T06:17:33;10.65;;;4.22;;
30892;SDS011;17595;50.884;4.346;2023-05-07T06:19:59;12.10;;;4.60;;
30892;SDS011;17595;50.884;4.346;2023-05-07T06:22:25;11.63;;;3.85;;
30892;SDS011;17595;50.884;4.346;2023-05-07T06:24:50;11.23;;;3.80;;
30892;SDS011;17595;50.884;4.346;2023-05-07T06:27:16;11.10;;;4.28;;
30892;SDS011;17595;50.884;4.346;2023-05-07T06:29:41;7.72;;;4.05;;
30892;SDS011;17595;50.884;4.346;2023-05-07T06:32:11;8.60;;;4.00;;
30892;SDS011;17595;50.884;4.346;2023-05-07T06:34:38;10.00;;;4.40;;
30892;SDS011;17595;50.884;4.346;2023-05-07T06:37:04;9.15;;;4.43;;
30892;SDS011;17595;50.884;4.346;2023-05-07T06:39:31;10.05;;;4.35;;
30892;SDS011;17595;50.884;4.346;2023-05-07T06:41:57;11.55;;;4.43;;
30892;SDS011;17595;50.884;4.346;2023-05-07T06:44:22;12.27;;;4.60;;
30892;SDS011;17595;50.884;4.346;2023-05-07T06:46:48;12.38;;;4.63;;
30892;SDS011;17595;50.884;4.346;2023-05-07T06:49:14;11.50;;;4.68;;
30892;SDS011;17595;50.884;4.346;2023-05-07T06:51:40;9.27;;;4.78;;
30892;SDS011;17595;50.884;4.346;2023-05-07T06:54:05;11.50;;;4.85;;
30892;SDS011;17595;50.884;4.346;2023-05-07T06:56:31;13.57;;;5.30;;
30892;SDS011;17595;50.884;4.346;2023-05-07T06:58:59;9.20;;;5.30;;
30892;SDS011;17595;50.884;4.346;2023-05-07T07:01:25;12.90;;;5.38;;
30892;SDS011;17595;50.884;4.346;2023-05-07T07:03:50;12.15;;;5.18;;
30892;SDS011;17595;50.884;4.346;2023-05-07T07:06:16;10.43;;;5.50;;
30892;SDS011;17595;50.884;4.346;2023-05-07T07:08:42;11.90;;;5.15;;
30892;SDS011;17595;50.884;4.346;2023-05-07T07:11:08;13.93;;;5.90;;
30892;SDS011;17595;50.884;4.346;2023-05-07T07:13:35;12.15;;;5.18;;
30892;SDS011;17595;50.884;4.346;2023-05-07T07:16:00;9.50;;;4.95;;
30892;SDS011;17595;50.884;4.346;2023-05-07T07:18:26;11.23;;;5.15;;
30892;SDS011;17595;50.884;4.346;2023-05-07T07:20:52;7.00;;;4.72;;
30892;SDS011;17595;50.884;4.346;2023-05-07T07:23:18;11.63;;;5.38;;
30892;SDS011;17595;50.884;4.346;2023-05-07T07:25:44;10.90;;;4.43;;
30892;SDS011;17595;50.884;4.346;2023-05-07T07:28:10;11.32;;;4.90;;
30892;SDS011;17595;50.884;4.346;2023-05-07T07:30:36;8.93;;;4.05;;
30892;SDS011;17595;50.884;4.346;2023-05-07T07:33:02;9.00;;;4.35;;
30892;SDS011;17595;50.884;4.346;2023-05-07T07:35:28;8.98;;;4.55;;
30892;SDS011;17595;50.884;4.346;2023-05-07T07:37:55;7.97;;;4.00;;
30892;SDS011;17595;50.884;4.346;2023-05-07T07:40:21;9.50;;;5.03;;
30892;SDS011;17595;50.884;4.346;2023-05-07T07:42:46;8.15;;;4.50;;
30892;SDS011;17595;50.884;4.346;2023-05-07T07:45:12;10.57;;;4.35;;
30892;SDS011;17595;50.884;4.346;2023-05-07T07:47:38;7.32;;;4.03;;
30892;SDS011;17595;50.884;4.346;2023-05-07T07:50:07;7.10;;;3.90;;
30892;SDS011;17595;50.884;4.346;2023-05-07T07:52:34;7.93;;;3.58;;
30892;SDS011;17595;50.884;4.346;2023-05-07T07:54:59;10.75;;;4.50;;
30892;SDS011;17595;50.884;4.346;2023-05-07T07:57:25;11.98;;;4.47;;
30892;SDS011;17595;50.884;4.346;2023-05-07T07:59:51;9.70;;;3.88;;
30892;SDS011;17595;50.884;4.346;2023-05-07T08:02:17;5.88;;;3.45;;
30892;SDS011;17595;50.884;4.346;2023-05-07T08:04:43;10.55;;;3.78;;
30892;SDS011;17595;50.884;4.346;2023-05-07T08:07:09;5.45;;;3.17;;
30892;SDS011;17595;50.884;4.346;2023-05-07T08:09:36;6.72;;;3.60;;
30892;SDS011;17595;50.884;4.346;2023-05-07T08:12:03;8.05;;;3.50;;
30892;SDS011;17595;50.884;4.346;2023-05-07T08:14:29;6.65;;;3.75;;
30892;SDS011;17595;50.884;4.346;2023-05-07T08:16:55;7.38;;;3.42;;
30892;SDS011;17595;50.884;4.346;2023-05-07T08:19:20;8.50;;;3.60;;
30892;SDS011;17595;50.884;4.346;2023-05-07T08:21:47;6.78;;;3.72;;
30892;SDS011;17595;50.884;4.346;2023-05-07T08:24:16;8.85;;;3.95;;
30892;SDS011;17595;50.884;4.346;2023-05-07T08:26:42;5.55;;;3.22;;
30892;SDS011;17595;50.884;4.346;2023-05-07T08:29:09;6.72;;;3.45;;
30892;SDS011;17595;50.884;4.346;2023-05-07T08:31:34;10.23;;;3.80;;
30892;SDS011;17595;50.884;4.346;2023-05-07T08:34:00;6.75;;;3.22;;
30892;SDS011;17595;50.884;4.346;2023-05-07T08:36:26;9.02;;;3.78;;
30892;SDS011;17595;50.884;4.346;2023-05-07T08:38:52;6.93;;;3.47;;
30892;SDS011;17595;50.884;4.346;2023-05-07T08:41:18;9.60;;;4.30;;
30892;SDS011;17595;50.884;4.346;2023-05-07T08:43:48;7.15;;;4.13;;
30892;SDS011;17595;50.884;4.346;2023-05-07T08:46:16;5.35;;;3.67;;
30892;SDS011;17595;50.884;4.346;2023-05-07T08:48:49;10.23;;;4.13;;
30892;SDS011;17595;50.884;4.346;2023-05-07T08:51:16;11.38;;;4.70;;
30892;SDS011;17595;50.884;4.346;2023-05-07T08:53:44;13.00;;;5.85;;
30892;SDS011;17595;50.884;4.346;2023-05-07T08:56:13;13.00;;;6.20;;
30892;SDS011;17595;50.884;4.346;2023-05-07T08:58:40;11.35;;;5.80;;
30892;SDS011;17595;50.884;4.346;2023-05-07T09:01:08;9.63;;;4.22;;
30892;SDS011;17595;50.884;4.346;2023-05-07T09:03:36;9.23;;;4.20;;
30892;SDS011;17595;50.884;4.346;2023-05-07T09:06:03;9.40;;;4.40;;
30892;SDS011;17595;50.884;4.346;2023-05-07T09:08:29;12.73;;;4.97;;
30892;SDS011;17595;50.884;4.346;2023-05-07T09:10:54;10.90;;;5.03;;
30892;SDS011;17595;50.884;4.346;2023-05-07T09:13:20;8.90;;;4.65;;
30892;SDS011;17595;50.884;4.346;2023-05-07T09:15:46;11.85;;;4.82;;
30892;SDS011;17595;50.884;4.346;2023-05-07T09:18:12;9.52;;;4.72;;
30892;SDS011;17595;50.884;4.346;2023-05-07T09:20:38;9.25;;;5.30;;
30892;SDS011;17595;50.884;4.346;2023-05-07T09:23:05;6.40;;;5.00;;
30892;SDS011;17595;50.884;4.346;2023-05-07T09:25:32;11.70;;;5.90;;
30892;SDS011;17595;50.884;4.346;2023-05-07T09:28:00;9.52;;;5.38;;
30892;SDS011;17595;50.884;4.346;2023-05-07T09:30:30;10.30;;;5.35;;
30892;SDS011;17595;50.884;4.346;2023-05-07T09:33:00;9.82;;;5.13;;
30892;SDS011;17595;50.884;4.346;2023-05-07T09:35:27;8.45;;;5.13;;
30892;SDS011;17595;50.884;4.346;2023-05-07T09:37:53;10.30;;;5.40;;
30892;SDS011;17595;50.884;4.346;2023-05-07T09:40:21;11.73;;;6.03;;
30892;SDS011;17595;50.884;4.346;2023-05-07T09:42:48;11.43;;;5.97;;
30892;SDS011;17595;50.884;4.346;2023-05-07T09:45:15;10.77;;;5.40;;
30892;SDS011;17595;50.884;4.346;2023-05-07T09:47:42;8.40;;;5.60;;
30892;SDS011;17595;50.884;4.346;2023-05-07T09:50:11;11.18;;;6.05;;
30892;SDS011;17595;50.884;4.346;2023-05-07T09:55:05;10.60;;;6.68;;
30892;SDS011;17595;50.884;4.346;2023-05-07T09:57:33;13.25;;;6.70;;
30892;SDS011;17595;50.884;4.346;2023-05-07T10:00:00;9.68;;;6.30;;
30892;SDS011;17595;50.884;4.346;2023-05-07T10:04:55;9.77;;;5.05;;
30892;SDS011;17595;50.884;4.346;2023-05-07T10:07:23;11.20;;;6.10;;
30892;SDS011;17595;50.884;4.346;2023-05-07T10:09:50;10.25;;;6.88;;
30892;SDS011;17595;50.884;4.346;2023-05-07T10:12:16;12.05;;;6.25;;
30892;SDS011;17595;50.884;4.346;2023-05-07T10:14:43;11.13;;;6.10;;
30892;SDS011;17595;50.884;4.346;2023-05-07T10:17:11;10.25;;;6.18;;
30892;SDS011;17595;50.884;4.346;2023-05-07T10:19:37;11.73;;;6.00;;
30892;SDS011;17595;50.884;4.346;2023-05-07T10:22:04;8.73;;;5.40;;
30892;SDS011;17595;50.884;4.346;2023-05-07T10:24:35;8.52;;;5.50;;
30892;SDS011;17595;50.884;4.346;2023-05-07T10:27:02;11.25;;;5.90;;
30892;SDS011;17595;50.884;4.346;2023-05-07T10:29:45;11.15;;;6.32;;
30892;SDS011;17595;50.884;4.346;2023-05-07T10:35:13;9.52;;;6.15;;
30892;SDS011;17595;50.884;4.346;2023-05-07T10:37:48;11.43;;;6.40;;
30892;SDS011;17595;50.884;4.346;2023-05-07T10:40:14;10.02;;;6.57;;
30892;SDS011;17595;50.884;4.346;2023-05-07T10:43:01;11.75;;;6.53;;
30892;SDS011;17595;50.884;4.346;2023-05-07T10:45:28;9.30;;;5.40;;
30892;SDS011;17595;50.884;4.346;2023-05-07T10:50:40;14.45;;;5.95;;
30892;SDS011;17595;50.884;4.346;2023-05-07T10:55:43;7.22;;;5.85;;
30892;SDS011;17595;50.884;4.346;2023-05-07T10:58:27;12.10;;;5.97;;
30892;SDS011;17595;50.884;4.346;2023-05-07T11:01:00;9.18;;;4.78;;
30892;SDS011;17595;50.884;4.346;2023-05-07T11:03:26;7.95;;;5.28;;
30892;SDS011;17595;50.884;4.346;2023-05-07T11:06:08;8.00;;;5.10;;
30892;SDS011;17595;50.884;4.346;2023-05-07T11:09:00;9.32;;;4.78;;
30892;SDS011;17595;50.884;4.346;2023-05-07T11:14:09;7.38;;;5.03;;
30892;SDS011;17595;50.884;4.346;2023-05-07T11:16:35;6.20;;;4.78;;
30892;SDS011;17595;50.884;4.346;2023-05-07T11:19:03;6.50;;;5.03;;
30892;SDS011;17595;50.884;4.346;2023-05-07T11:23:59;8.40;;;5.15;;
30892;SDS011;17595;50.884;4.346;2023-05-07T11:26:25;8.35;;;5.95;;
30892;SDS011;17595;50.884;4.346;2023-05-07T11:28:52;5.97;;;4.50;;
30892;SDS011;17595;50.884;4.346;2023-05-07T11:31:22;5.95;;;4.32;;
30892;SDS011;17595;50.884;4.346;2023-05-07T11:33:51;9.40;;;4.45;;
30892;SDS011;17595;50.884;4.346;2023-05-07T11:36:17;5.82;;;4.75;;
30892;SDS011;17595;50.884;4.346;2023-05-07T11:38:44;7.28;;;4.60;;
30892;SDS011;17595;50.884;4.346;2023-05-07T11:41:10;6.53;;;4.50;;
30892;SDS011;17595;50.884;4.346;2023-05-07T11:43:36;8.38;;;4.00;;
30892;SDS011;17595;50.884;4.346;2023-05-07T11:46:05;6.10;;;4.45;;
30892;SDS011;17595;50.884;4.346;2023-05-07T11:48:32;8.43;;;4.78;;
30892;SDS011;17595;50.884;4.346;2023-05-07T11:53:26;6.38;;;4.00;;
30892;SDS011;17595;50.884;4.346;2023-05-07T11:55:53;8.25;;;4.43;;
30892;SDS011;17595;50.884;4.346;2023-05-07T11:58:21;7.80;;;3.35;;
30892;SDS011;17595;50.884;4.346;2023-05-07T12:00:51;4.72;;;2.90;;
30892;SDS011;17595;50.884;4.346;2023-05-07T12:03:19;5.57;;;2.92;;
30892;SDS011;17595;50.884;4.346;2023-05-07T12:05:48;5.55;;;3.25;;
30892;SDS011;17595;50.884;4.346;2023-05-07T12:08:17;4.63;;;2.90;;
30892;SDS011;17595;50.884;4.346;2023-05-07T12:10:43;4.55;;;2.33;;
30892;SDS011;17595;50.884;4.346;2023-05-07T12:13:16;5.50;;;2.63;;
30892;SDS011;17595;50.884;4.346;2023-05-07T12:15:50;6.95;;;2.90;;
30892;SDS011;17595;50.884;4.346;2023-05-07T12:18:16;4.85;;;2.65;;
30892;SDS011;17595;50.884;4.346;2023-05-07T12:20:42;3.08;;;2.15;;
30892;SDS011;17595;50.884;4.346;2023-05-07T12:23:08;4.55;;;2.25;;
30892;SDS011;17595;50.884;4.346;2023-05-07T12:25:35;4.22;;;2.47;;
30892;SDS011;17595;50.884;4.346;2023-05-07T12:28:02;5.28;;;3.25;;
30892;SDS011;17595;50.884;4.346;2023-05-07T12:30:31;5.85;;;4.00;;
30892;SDS011;17595;50.884;4.346;2023-05-07T12:32:57;4.68;;;3.30;;
30892;SDS011;17595;50.884;4.346;2023-05-07T12:35:26;5.80;;;3.10;;
30892;SDS011;17595;50.884;4.346;2023-05-07T12:37:56;6.45;;;4.80;;
30892;SDS011;17595;50.884;4.346;2023-05-07T12:40:35;17.80;;;12.50;;
30892;SDS011;17595;50.884;4.346;2023-05-07T12:43:02;7.10;;;4.43;;
30892;SDS011;17595;50.884;4.346;2023-05-07T12:45:28;8.07;;;4.75;;
30892;SDS011;17595;50.884;4.346;2023-05-07T12:47:53;6.07;;;4.50;;
30892;SDS011;17595;50.884;4.346;2023-05-07T12:50:19;7.05;;;4.00;;
30892;SDS011;17595;50.884;4.346;2023-05-07T12:52:47;5.75;;;3.92;;
30892;SDS011;17595;50.884;4.346;2023-05-07T12:55:16;4.90;;;3.47;;
30892;SDS011;17595;50.884;4.346;2023-05-07T12:57:43;4.35;;;3.67;;
30892;SDS011;17595;50.884;4.346;2023-05-07T13:00:13;6.20;;;3.78;;
30892;SDS011;17595;50.884;4.346;2023-05-07T13:02:39;4.90;;;4.00;;
30892;SDS011;17595;50.884;4.346;2023-05-07T13:05:06;10.52;;;6.20;;
30892;SDS011;17595;50.884;4.346;2023-05-07T13:07:33;10.23;;;8.95;;
30892;SDS011;17595;50.884;4.346;2023-05-07T13:09:59;8.63;;;7.20;;
30892;SDS011;17595;50.884;4.346;2023-05-07T13:12:24;5.43;;;3.85;;
30892;SDS011;17595;50.884;4.346;2023-05-07T13:14:50;7.78;;;4.97;;
30892;SDS011;17595;50.884;4.346;2023-05-07T13:17:16;7.15;;;4.40;;
30892;SDS011;17595;50.884;4.346;2023-05-07T13:19:41;5.35;;;4.38;;
30892;SDS011;17595;50.884;4.346;2023-05-07T13:22:07;7.00;;;4.45;;
30892;SDS011;17595;50.884;4.346;2023-05-07T13:24:33;6.35;;;4.55;;
30892;SDS011;17595;50.884;4.346;2023-05-07T13:26:58;5.45;;;4.00;;
30892;SDS011;17595;50.884;4.346;2023-05-07T13:29:24;6.55;;;5.20;;
30892;SDS011;17595;50.884;4.346;2023-05-07T13:31:53;7.80;;;5.50;;
30892;SDS011;17595;50.884;4.346;2023-05-07T13:34:20;8.02;;;6.05;;
30892;SDS011;17595;50.884;4.346;2023-05-07T13:36:45;8.05;;;7.25;;
30892;SDS011;17595;50.884;4.346;2023-05-07T13:39:11;8.35;;;7.47;;
30892;SDS011;17595;50.884;4.346;2023-05-07T13:41:37;12.10;;;7.95;;
30892;SDS011;17595;50.884;4.346;2023-05-07T13:44:02;8.18;;;7.38;;
30892;SDS011;17595;50.884;4.346;2023-05-07T13:46:28;10.13;;;7.93;;
30892;SDS011;17595;50.884;4.346;2023-05-07T13:48:54;9.20;;;8.30;;
30892;SDS011;17595;50.884;4.346;2023-05-07T13:51:20;9.05;;;8.18;;
30892;SDS011;17595;50.884;4.346;2023-05-07T13:53:46;9.80;;;8.75;;
30892;SDS011;17595;50.884;4.346;2023-05-07T13:56:12;10.50;;;8.57;;
30892;SDS011;17595;50.884;4.346;2023-05-07T13:58:39;9.93;;;8.85;;
30892;SDS011;17595;50.884;4.346;2023-05-07T14:01:05;8.77;;;8.02;;
30892;SDS011;17595;50.884;4.346;2023-05-07T14:03:31;9.98;;;9.07;;
30892;SDS011;17595;50.884;4.346;2023-05-07T14:05:58;9.85;;;8.85;;
30892;SDS011;17595;50.884;4.346;2023-05-07T14:08:26;9.02;;;8.23;;
30892;SDS011;17595;50.884;4.346;2023-05-07T14:10:52;7.78;;;7.00;;
30892;SDS011;17595;50.884;4.346;2023-05-07T14:13:18;7.80;;;7.05;;
30892;SDS011;17595;50.884;4.346;2023-05-07T14:15:44;8.57;;;7.78;;
30892;SDS011;17595;50.884;4.346;2023-05-07T14:18:14;7.70;;;7.00;;
30892;SDS011;17595;50.884;4.346;2023-05-07T14:20:40;8.13;;;7.22;;
30892;SDS011;17595;50.884;4.346;2023-05-07T14:23:08;7.47;;;6.78;;
30892;SDS011;17595;50.884;4.346;2023-05-07T14:25:33;8.75;;;7.68;;
30892;SDS011;17595;50.884;4.346;2023-05-07T14:27:59;10.95;;;8.40;;
30892;SDS011;17595;50.884;4.346;2023-05-07T14:30:25;10.90;;;8.93;;
30892;SDS011;17595;50.884;4.346;2023-05-07T14:32:50;10.10;;;9.13;;
30892;SDS011;17595;50.884;4.346;2023-05-07T14:35:16;9.98;;;8.68;;
30892;SDS011;17595;50.884;4.346;2023-05-07T14:37:42;9.27;;;8.40;;
30892;SDS011;17595;50.884;4.346;2023-05-07T14:40:08;9.32;;;8.43;;
30892;SDS011;17595;50.884;4.346;2023-05-07T14:42:34;11.07;;;8.48;;
30892;SDS011;17595;50.884;4.346;2023-05-07T14:45:00;10.63;;;9.52;;
30892;SDS011;17595;50.884;4.346;2023-05-07T14:47:26;11.10;;;9.13;;
30892;SDS011;17595;50.884;4.346;2023-05-07T14:49:51;15.25;;;9.73;;
30892;SDS011;17595;50.884;4.346;2023-05-07T14:52:18;13.98;;;10.05;;
30892;SDS011;17595;50.884;4.346;2023-05-07T14:54:43;11.13;;;9.27;;
30892;SDS011;17595;50.884;4.346;2023-05-07T14:57:10;9.82;;;8.82;;
30892;SDS011;17595;50.884;4.346;2023-05-07T14:59:38;9.93;;;8.73;;
30892;SDS011;17595;50.884;4.346;2023-05-07T15:02:04;10.45;;;8.98;;